createdAt,value
2022-08-04T00:01:32.229Z,100317.00
2022-08-04T00:04:04.206Z,100317.59
2022-08-04T00:07:09.466Z,100308.81
2022-08-04T00:09:50.370Z,100315.75
2022-08-04T00:12:18.159Z,100313.91
2022-08-04T00:14:58.177Z,100313.69
2022-08-04T00:17:31.137Z,100298.50
2022-08-04T00:20:03.387Z,100311.22
2022-08-04T00:22:31.881Z,100314.88
2022-08-04T00:25:03.479Z,100305.44
2022-08-04T00:27:31.707Z,100318.97
2022-08-04T00:30:04.920Z,100326.75
2022-08-04T00:32:33.796Z,100322.25
2022-08-04T00:35:05.149Z,100319.59
2022-08-04T00:37:34.081Z,100313.22
2022-08-04T00:40:03.610Z,100315.69
2022-08-04T00:42:34.951Z,100326.50
2022-08-04T00:46:10.930Z,100326.31
2022-08-04T00:48:46.303Z,100330.00
2022-08-04T00:51:26.100Z,100328.78
2022-08-04T00:54:20.969Z,100330.63
2022-08-04T00:57:34.129Z,100331.22
2022-08-04T01:00:14.695Z,100329.22
2022-08-04T01:02:50.498Z,100330.06
2022-08-04T01:05:22.137Z,100331.72
2022-08-04T01:08:10.628Z,100330.47
2022-08-04T01:11:02.383Z,100333.97
2022-08-04T01:13:38.569Z,100338.69
2022-08-04T01:16:11.425Z,100339.47
2022-08-04T01:18:59.092Z,100338.69
2022-08-04T01:21:57.193Z,100328.00
2022-08-04T01:24:36.395Z,100340.50
2022-08-04T01:27:09.990Z,100343.16
2022-08-04T01:29:59.309Z,100340.09
2022-08-04T01:32:34.062Z,100345.81
2022-08-04T01:35:03.706Z,100346.03
2022-08-04T01:38:20.076Z,100344.81
2022-08-04T01:40:53.788Z,100345.22
2022-08-04T01:43:21.676Z,100347.66
2022-08-04T01:45:59.631Z,100351.56
2022-08-04T01:48:28.002Z,100350.72
2022-08-04T01:50:59.978Z,100346.66
2022-08-04T01:53:51.629Z,100346.47
2022-08-04T01:56:19.827Z,100357.31
2022-08-04T01:58:47.350Z,100352.38
2022-08-04T02:01:14.609Z,100358.72
2022-08-04T02:04:18.839Z,100352.59
2022-08-04T02:06:38.480Z,100353.41
2022-08-04T02:09:25.725Z,100357.50
2022-08-04T02:12:05.500Z,100355.84
2022-08-04T02:15:13.989Z,100356.25
2022-08-04T02:17:51.005Z,100358.31
2022-08-04T02:20:29.656Z,100357.91
2022-08-04T02:23:07.728Z,100356.84
2022-08-04T02:25:39.674Z,100364.44
2022-08-04T02:28:45.153Z,100357.69
2022-08-04T02:31:33.914Z,100356.69
2022-08-04T02:34:16.107Z,100360.16
2022-08-04T02:36:43.715Z,100365.69
2022-08-04T02:39:12.626Z,100363.63
2022-08-04T02:41:41.035Z,100362.41
2022-08-04T02:44:10.603Z,100367.53
2022-08-04T02:46:38.863Z,100366.53
2022-08-04T02:49:09.787Z,100368.59
2022-08-04T02:51:46.490Z,100365.28
2022-08-04T02:54:16.249Z,100369.59
2022-08-04T02:57:02.548Z,100374.91
2022-08-04T02:59:53.882Z,100377.97
2022-08-04T03:02:32.539Z,100380.03
2022-08-04T03:05:08.124Z,100370.84
2022-08-04T03:07:56.110Z,100375.75
2022-08-04T03:11:08.433Z,100379.81
2022-08-04T03:14:16.897Z,100382.69
2022-08-04T03:17:08.518Z,100388.25
2022-08-04T03:19:38.539Z,100385.38
2022-08-04T03:22:21.867Z,100387.59
2022-08-04T03:25:25.029Z,100396.84
2022-08-04T03:28:23.436Z,100391.13
2022-08-04T03:31:18.490Z,100399.69
2022-08-04T03:34:09.307Z,100393.47
2022-08-04T03:36:54.788Z,100393.03
2022-08-04T03:39:55.688Z,100392.13
2022-08-04T03:42:51.302Z,100398.50
2022-08-04T03:45:36.481Z,100402.78
2022-08-04T03:48:28.385Z,100399.53
2022-08-04T03:51:34.119Z,100405.44
2022-08-04T03:54:18.317Z,100406.47
2022-08-04T03:57:29.702Z,100412.81
2022-08-04T04:00:29.967Z,100400.28
2022-08-04T04:03:09.114Z,100400.22
2022-08-04T04:05:58.987Z,100404.94
2022-08-04T04:08:32.001Z,100412.31
2022-08-04T04:11:31.709Z,100394.66
2022-08-04T04:14:23.983Z,100414.22
2022-08-04T04:17:21.414Z,100412.56
2022-08-04T04:20:10.941Z,100416.44
2022-08-04T04:23:02.818Z,100421.72
2022-08-04T04:25:42.365Z,100414.88
2022-08-04T04:28:46.981Z,100422.97
2022-08-04T04:31:22.981Z,100423.16
2022-08-04T04:34:15.818Z,100426.94
2022-08-04T04:37:16.916Z,100422.25
2022-08-04T04:39:55.862Z,100425.34
2022-08-04T04:42:52.518Z,100422.25
2022-08-04T04:45:39.448Z,100423.75
2022-08-04T04:48:29.686Z,100417.50
2022-08-04T04:51:14.081Z,100426.94
2022-08-04T04:53:49.766Z,100421.09
2022-08-04T04:56:25.430Z,100430.09
2022-08-04T04:58:54.944Z,100431.66
2022-08-04T05:01:38.311Z,100422.47
2022-08-04T05:04:26.525Z,100430.63
2022-08-04T05:07:10.062Z,100430.31
2022-08-04T05:10:01.506Z,100426.88
2022-08-04T05:14:32.406Z,100434.53
2022-08-04T05:15:34.523Z,100427.53
2022-08-04T05:18:04.388Z,100431.59
2022-08-04T05:20:46.033Z,100433.28
2022-08-04T05:23:18.781Z,100433.84
2022-08-04T05:26:02.121Z,100431.03
2022-08-04T05:28:38.301Z,100423.53
2022-08-04T05:31:20.567Z,100425.47
2022-08-04T05:33:52.294Z,100425.34
2022-08-04T05:36:40.610Z,100417.41
2022-08-04T05:39:14.570Z,100413.09
2022-08-04T05:41:45.446Z,100419.84
2022-08-04T05:44:16.896Z,100422.06
2022-08-04T05:46:56.365Z,100419.53
2022-08-04T05:49:25.366Z,100422.38
2022-08-04T05:51:55.287Z,100423.19
2022-08-04T05:54:23.543Z,100420.91
2022-08-04T05:56:51.650Z,100414.16
2022-08-04T05:59:20.877Z,100412.53
2022-08-04T06:01:55.890Z,100417.38
2022-08-04T06:04:46.176Z,100418.56
2022-08-04T06:07:14.401Z,100424.41
2022-08-04T06:09:42.555Z,100421.19
2022-08-04T06:12:14.749Z,100417.56
2022-08-04T06:14:47.374Z,100418.94
2022-08-04T06:18:32.801Z,100413.63
2022-08-04T06:20:20.080Z,100422.97
2022-08-04T06:22:58.921Z,100411.09
2022-08-04T06:25:31.399Z,100419.88
2022-08-04T06:27:58.843Z,100412.91
2022-08-04T06:30:28.468Z,100414.53
2022-08-04T06:33:03.667Z,100410.47
2022-08-04T06:35:34.087Z,100408.63
2022-08-04T06:38:03.168Z,100414.97
2022-08-04T06:40:33.697Z,100414.56
2022-08-04T06:43:03.855Z,100412.03
2022-08-04T06:45:34.890Z,100411.81
2022-08-04T06:48:03.925Z,100415.94
2022-08-04T06:51:27.332Z,100412.38
2022-08-04T06:53:20.352Z,100414.00
2022-08-04T06:55:49.222Z,100411.13
2022-08-04T06:58:19.455Z,100408.28
2022-08-04T07:00:48.140Z,100410.34
2022-08-04T07:03:18.231Z,100404.81
2022-08-04T07:05:48.192Z,100408.94
2022-08-04T07:08:16.077Z,100406.16
2022-08-04T07:10:44.986Z,100408.97
2022-08-04T07:13:12.621Z,100405.69
2022-08-04T07:15:42.575Z,100404.19
2022-08-04T07:18:09.642Z,100403.91
2022-08-04T07:20:41.674Z,100401.44
2022-08-04T07:23:10.331Z,100408.31
2022-08-04T07:25:59.450Z,100395.97
2022-08-04T07:28:27.884Z,100397.22
2022-08-04T07:30:56.386Z,100400.84
2022-08-04T07:33:25.171Z,100398.06
2022-08-04T07:36:09.878Z,100409.69
2022-08-04T07:38:48.352Z,100409.75
2022-08-04T07:41:42.511Z,100400.47
2022-08-04T07:44:14.683Z,100402.88
2022-08-04T07:46:42.790Z,100398.34
2022-08-04T07:49:10.244Z,100404.09
2022-08-04T07:51:38.538Z,100396.03
2022-08-04T07:54:07.907Z,100391.97
2022-08-04T07:56:39.536Z,100388.72
2022-08-04T07:59:07.116Z,100398.94
2022-08-04T08:01:37.973Z,100402.75
2022-08-04T08:04:07.841Z,100388.22
2022-08-04T08:06:42.732Z,100398.81
2022-08-04T08:09:14.485Z,100391.22
2022-08-04T08:12:38.551Z,100394.34
2022-08-04T08:14:31.644Z,100395.69
2022-08-04T08:17:02.800Z,100389.84
2022-08-04T08:19:34.922Z,100389.06
2022-08-04T08:22:03.919Z,100385.88
2022-08-04T08:24:36.265Z,100387.56
2022-08-04T08:27:04.936Z,100388.31
2022-08-04T08:29:35.162Z,100392.25
2022-08-04T08:32:08.806Z,100403.16
2022-08-04T08:34:38.857Z,100388.28
2022-08-04T08:37:35.163Z,100388.13
2022-08-04T08:40:39.227Z,100385.56
2022-08-04T08:44:04.829Z,100387.25
2022-08-04T08:47:07.096Z,100388.25
2022-08-04T08:50:04.333Z,100386.31
2022-08-04T08:52:56.231Z,100388.28
2022-08-04T08:55:40.109Z,100383.56
2022-08-04T08:58:29.305Z,100390.22
2022-08-04T09:01:18.503Z,100379.94
2022-08-04T09:04:09.662Z,100370.94
2022-08-04T09:06:58.907Z,100383.34
2022-08-04T09:09:31.861Z,100387.34
2022-08-04T09:12:12.956Z,100388.41
2022-08-04T09:14:47.870Z,100395.28
2022-08-04T09:17:33.516Z,100389.13
2022-08-04T09:20:06.370Z,100381.97
2022-08-04T09:22:44.120Z,100377.69
2022-08-04T09:25:20.356Z,100386.03
2022-08-04T09:27:52.753Z,100392.41
2022-08-04T09:30:24.396Z,100387.31
2022-08-04T09:33:04.708Z,100378.75
2022-08-04T09:35:47.301Z,100376.53
2022-08-04T09:38:32.245Z,100374.50
2022-08-04T09:41:19.798Z,100384.22
2022-08-04T09:44:49.133Z,100379.72
2022-08-04T09:47:40.728Z,100379.75
2022-08-04T09:50:50.696Z,100379.41
2022-08-04T09:53:26.316Z,100369.50
2022-08-04T09:56:05.183Z,100371.16
2022-08-04T09:59:26.416Z,100366.34
2022-08-04T10:02:05.547Z,100367.63
2022-08-04T10:04:35.252Z,100360.81
2022-08-04T10:07:18.061Z,100373.34
2022-08-04T10:10:40.223Z,100357.84
2022-08-04T10:13:20.996Z,100361.00
2022-08-04T10:16:15.238Z,100360.28
2022-08-04T10:19:16.210Z,100357.09
2022-08-04T10:22:26.990Z,100364.16
2022-08-04T10:24:56.599Z,100361.56
2022-08-04T10:27:51.333Z,100358.44
2022-08-04T10:30:20.720Z,100362.03
2022-08-04T10:32:52.967Z,100352.19
2022-08-04T10:35:23.783Z,100360.00
2022-08-04T10:38:07.853Z,100358.94
2022-08-04T10:40:45.693Z,100360.63
2022-08-04T10:43:22.737Z,100357.53
2022-08-04T10:46:02.054Z,100356.25
2022-08-04T10:48:47.168Z,100358.56
2022-08-04T10:51:30.175Z,100353.69
2022-08-04T10:54:26.402Z,100352.19
2022-08-04T10:56:59.444Z,100351.84
2022-08-04T11:00:20.862Z,100349.63
2022-08-04T11:03:09.279Z,100349.91
2022-08-04T11:05:48.361Z,100355.44
2022-08-04T11:08:25.538Z,100365.50
2022-08-04T11:11:15.093Z,100357.66
2022-08-04T11:13:49.952Z,100358.66
2022-08-04T11:16:30.399Z,100354.53
2022-08-04T11:19:10.996Z,100347.13
2022-08-04T11:21:50.080Z,100355.66
2022-08-04T11:24:33.662Z,100358.47
2022-08-04T11:27:05.430Z,100351.69
2022-08-04T11:29:40.422Z,100355.25
2022-08-04T11:32:14.703Z,100344.38
2022-08-04T11:34:52.752Z,100355.25
2022-08-04T11:37:42.997Z,100349.94
2022-08-04T11:40:21.704Z,100340.38
2022-08-04T11:43:02.109Z,100344.28
2022-08-04T11:45:38.142Z,100347.03
2022-08-04T11:48:11.487Z,100337.84
2022-08-04T11:50:49.192Z,100331.06
2022-08-04T11:53:23.257Z,100334.56
2022-08-04T11:56:07.891Z,100337.09
2022-08-04T11:58:37.711Z,100342.16
2022-08-04T12:01:35.023Z,100335.75
2022-08-04T12:04:14.455Z,100338.25
2022-08-04T12:07:29.612Z,100333.19
2022-08-04T12:10:40.843Z,100339.03
2022-08-04T12:13:15.678Z,100342.22
2022-08-04T12:15:57.890Z,100335.00
2022-08-04T12:18:42.491Z,100343.59
2022-08-04T12:21:35.416Z,100338.28
2022-08-04T12:24:05.929Z,100333.88
2022-08-04T12:26:45.154Z,100338.13
2022-08-04T12:29:16.500Z,100334.09
2022-08-04T12:32:04.932Z,100322.66
2022-08-04T12:34:32.022Z,100331.88
2022-08-04T12:37:14.308Z,100324.81
2022-08-04T12:40:21.653Z,100334.03
2022-08-04T12:43:06.121Z,100322.50
2022-08-04T12:45:34.333Z,100318.16
2022-08-04T12:48:05.010Z,100329.81
2022-08-04T12:50:33.812Z,100322.91
2022-08-04T12:53:03.351Z,100325.19
2022-08-04T12:55:34.461Z,100321.25
2022-08-04T12:58:15.930Z,100322.38
2022-08-04T13:00:47.840Z,100326.00
2022-08-04T13:03:17.472Z,100317.53
2022-08-04T13:05:47.007Z,100306.16
2022-08-04T13:08:16.182Z,100314.38
2022-08-04T13:10:47.983Z,100310.09
2022-08-04T13:13:24.634Z,100316.84
2022-08-04T13:16:03.811Z,100320.28
2022-08-04T13:18:33.555Z,100310.78
2022-08-04T13:21:23.046Z,100313.53
2022-08-04T13:24:22.804Z,100315.41
2022-08-04T13:27:16.454Z,100300.28
2022-08-04T13:29:59.932Z,100306.84
2022-08-04T13:32:35.578Z,100315.53
2022-08-04T13:35:04.750Z,100310.16
2022-08-04T13:37:41.150Z,100306.44
2022-08-04T13:40:12.148Z,100304.75
2022-08-04T13:42:40.795Z,100300.47
2022-08-04T13:45:11.199Z,100307.50
2022-08-04T13:47:40.506Z,100295.59
2022-08-04T13:50:12.962Z,100297.56
2022-08-04T13:52:42.212Z,100293.56
2022-08-04T13:55:20.663Z,100292.19
2022-08-04T13:57:52.941Z,100297.31
2022-08-04T14:00:30.125Z,100289.50
2022-08-04T14:03:22.945Z,100292.19
2022-08-04T14:06:15.841Z,100285.47
2022-08-04T14:09:01.642Z,100278.47
2022-08-04T14:12:10.103Z,100283.88
2022-08-04T14:14:33.856Z,100280.09
2022-08-04T14:17:03.045Z,100277.41
2022-08-04T14:19:49.513Z,100285.50
2022-08-04T14:22:36.802Z,100284.38
2022-08-04T14:25:18.606Z,100282.22
2022-08-04T14:27:47.777Z,100282.47
2022-08-04T14:30:35.611Z,100278.41
2022-08-04T14:34:02.816Z,100283.25
2022-08-04T14:35:59.650Z,100281.38
2022-08-04T14:38:48.949Z,100281.66
2022-08-04T14:41:17.776Z,100281.69
2022-08-04T14:43:53.178Z,100280.31
2022-08-04T14:46:21.384Z,100281.09
2022-08-04T14:49:12.105Z,100277.56
2022-08-04T14:51:51.820Z,100281.91
2022-08-04T14:54:27.956Z,100282.72
2022-08-04T14:56:58.326Z,100282.19
2022-08-04T14:59:25.435Z,100285.41
2022-08-04T15:02:00.571Z,100285.69
2022-08-04T15:04:31.569Z,100295.13
2022-08-04T15:07:00.655Z,100284.06
2022-08-04T15:09:33.079Z,100280.53
2022-08-04T15:12:00.665Z,100284.34
2022-08-04T15:14:37.412Z,100282.16
2022-08-04T15:17:11.900Z,100292.38
2022-08-04T15:19:40.546Z,100292.13
2022-08-04T15:22:23.305Z,100288.06
2022-08-04T15:24:54.809Z,100289.66
2022-08-04T15:27:28.904Z,100301.53
2022-08-04T15:30:02.877Z,100296.66
2022-08-04T15:32:44.408Z,100301.50
2022-08-04T15:35:13.516Z,100299.31
2022-08-04T15:37:57.982Z,100303.88
2022-08-04T15:40:56.476Z,100296.47
2022-08-04T15:43:55.547Z,100305.69
2022-08-04T15:46:49.607Z,100298.63
2022-08-04T15:49:22.269Z,100298.34
2022-08-04T15:52:13.581Z,100306.16
2022-08-04T15:54:42.473Z,100295.78
2022-08-04T15:58:01.612Z,100299.78
2022-08-04T16:00:29.058Z,100301.06
2022-08-04T16:02:56.241Z,100303.47
2022-08-04T16:05:23.569Z,100299.41
2022-08-04T16:08:00.001Z,100304.25
2022-08-04T16:10:31.269Z,100305.28
2022-08-04T16:13:06.400Z,100308.97
2022-08-04T16:16:03.840Z,100302.16
2022-08-04T16:18:31.397Z,100307.72
2022-08-04T16:21:04.549Z,100307.41
2022-08-04T16:23:55.105Z,100315.19
2022-08-04T16:26:42.400Z,100311.94
2022-08-04T16:29:24.727Z,100318.34
2022-08-04T16:32:13.240Z,100314.78
2022-08-04T16:35:00.179Z,100318.94
2022-08-04T16:37:30.835Z,100319.41
2022-08-04T16:40:35.969Z,100316.63
2022-08-04T16:43:22.318Z,100325.41
2022-08-04T16:45:59.012Z,100319.94
2022-08-04T16:48:28.366Z,100325.56
2022-08-04T16:50:57.562Z,100326.03
2022-08-04T16:53:53.578Z,100332.16
2022-08-04T16:56:30.343Z,100328.75
2022-08-04T16:59:09.737Z,100324.97
2022-08-04T17:01:38.390Z,100327.84
2022-08-04T17:04:06.256Z,100326.81
2022-08-04T17:06:36.190Z,100326.25
2022-08-04T17:09:20.886Z,100330.13
2022-08-04T17:11:49.277Z,100329.44
2022-08-04T17:14:25.197Z,100332.84
2022-08-04T17:16:54.060Z,100333.25
2022-08-04T17:19:26.085Z,100336.09
2022-08-04T17:22:05.802Z,100332.53
2022-08-04T17:24:36.954Z,100339.38
2022-08-04T17:28:09.441Z,100342.22
2022-08-04T17:29:52.968Z,100342.00
2022-08-04T17:32:21.725Z,100339.56
2022-08-04T17:34:51.428Z,100343.13
2022-08-04T17:37:40.181Z,100358.06
2022-08-04T17:40:14.303Z,100360.34
2022-08-04T17:42:45.230Z,100354.28
2022-08-04T17:48:24.815Z,100355.38
2022-08-04T17:50:52.516Z,100357.06
2022-08-04T17:54:01.249Z,100359.50
2022-08-04T17:56:36.465Z,100358.19
2022-08-04T17:59:56.800Z,100355.66
2022-08-04T18:02:12.605Z,100360.81
2022-08-04T18:05:06.023Z,100356.75
2022-08-04T18:08:38.248Z,100362.47
2022-08-04T18:10:52.527Z,100360.16
2022-08-04T18:13:27.378Z,100361.09
2022-08-04T18:16:14.319Z,100363.91
2022-08-04T18:19:14.197Z,100366.09
2022-08-04T18:21:46.944Z,100364.81
2022-08-04T18:24:35.726Z,100345.22
2022-08-04T18:27:23.741Z,100360.81
2022-08-04T18:30:33.256Z,100354.53
2022-08-04T18:33:04.307Z,100356.50
2022-08-04T18:36:31.476Z,100358.84
2022-08-04T18:38:23.741Z,100354.16
2022-08-04T18:40:52.817Z,100365.13
2022-08-04T18:43:27.943Z,100359.19
2022-08-04T18:45:57.416Z,100374.78
2022-08-04T18:48:36.383Z,100365.69
2022-08-04T18:51:10.710Z,100366.06
2022-08-04T18:53:55.342Z,100372.56
2022-08-04T18:56:29.905Z,100370.84
2022-08-04T18:59:03.112Z,100373.63
2022-08-04T19:02:13.661Z,100377.03
2022-08-04T19:04:32.300Z,100378.78
2022-08-04T19:07:25.117Z,100378.94
2022-08-04T19:09:52.060Z,100380.53
2022-08-04T19:12:27.244Z,100386.72
2022-08-04T19:17:59.952Z,100381.03
2022-08-04T19:20:29.395Z,100383.00
2022-08-04T19:24:10.130Z,100391.84
2022-08-04T19:26:01.288Z,100381.94
2022-08-04T19:28:35.975Z,100392.78
2022-08-04T19:31:05.808Z,100384.50
2022-08-04T19:33:59.279Z,100384.50
2022-08-04T19:36:27.675Z,100386.84
2022-08-04T19:38:59.847Z,100394.06
2022-08-04T19:41:30.605Z,100392.19
2022-08-04T19:43:58.531Z,100389.75
2022-08-04T19:46:28.619Z,100393.59
2022-08-04T19:48:59.505Z,100396.53
2022-08-04T19:51:30.042Z,100387.16
2022-08-04T19:54:02.855Z,100394.66
2022-08-04T19:56:40.551Z,100401.66
2022-08-04T19:59:10.383Z,100402.91
2022-08-04T20:01:44.845Z,100398.81
2022-08-04T20:04:13.921Z,100393.38
2022-08-04T20:06:42.738Z,100391.03
2022-08-04T20:09:24.732Z,100395.09
2022-08-04T20:11:56.422Z,100393.25
2022-08-04T20:14:31.476Z,100398.97
2022-08-04T20:17:12.050Z,100401.88
2022-08-04T20:19:51.508Z,100399.19
2022-08-04T20:22:52.793Z,100398.63
2022-08-04T20:25:18.108Z,100398.00
2022-08-04T20:28:00.443Z,100394.75
2022-08-04T20:30:30.298Z,100399.09
2022-08-04T20:32:57.994Z,100396.28
2022-08-04T20:35:26.955Z,100401.06
2022-08-04T20:38:00.401Z,100405.38
2022-08-04T20:40:29.934Z,100405.13
2022-08-04T20:42:58.736Z,100400.59
2022-08-04T20:45:55.841Z,100400.47
2022-08-04T20:48:13.226Z,100397.69
2022-08-04T20:50:40.287Z,100397.69
2022-08-04T20:53:16.692Z,100396.03
2022-08-04T20:55:55.234Z,100405.13
2022-08-04T20:58:27.572Z,100400.22
2022-08-04T21:00:55.895Z,100395.56
2022-08-04T21:03:49.515Z,100397.19
2022-08-04T21:06:11.545Z,100400.78
2022-08-04T21:08:38.587Z,100398.44
2022-08-04T21:11:06.904Z,100409.25
2022-08-04T21:13:52.252Z,100402.72
2022-08-04T21:16:55.033Z,100400.38
2022-08-04T21:19:13.694Z,100406.06
2022-08-04T21:21:42.237Z,100410.25
2022-08-04T21:24:10.299Z,100411.75
2022-08-04T21:26:42.817Z,100408.13
2022-08-04T21:29:13.319Z,100413.47
2022-08-04T21:31:50.347Z,100406.47
2022-08-04T21:34:39.070Z,100415.41
2022-08-04T21:37:11.319Z,100418.34
2022-08-04T21:39:50.202Z,100408.09
2022-08-04T21:42:28.008Z,100414.09
2022-08-04T21:44:57.453Z,100412.91
2022-08-04T21:47:24.522Z,100409.88
2022-08-04T21:49:56.403Z,100418.47
2022-08-04T21:52:24.969Z,100412.31
2022-08-04T21:54:54.522Z,100412.91
2022-08-04T21:57:25.282Z,100413.69
2022-08-04T21:59:53.069Z,100417.44
2022-08-04T22:02:20.266Z,100424.63
2022-08-04T22:04:48.987Z,100412.53
2022-08-04T22:07:16.964Z,100414.59
2022-08-04T22:09:59.962Z,100417.75
2022-08-04T22:12:30.329Z,100402.84
2022-08-04T22:14:59.406Z,100404.53
2022-08-04T22:17:29.431Z,100411.31
2022-08-04T22:20:02.775Z,100411.59
2022-08-04T22:22:34.774Z,100404.25
2022-08-04T22:25:12.400Z,100411.31
2022-08-04T22:28:00.858Z,100419.66
2022-08-04T22:30:36.542Z,100412.28
2022-08-04T22:33:07.465Z,100417.28
2022-08-04T22:35:44.209Z,100417.94
2022-08-04T22:38:24.080Z,100418.81
2022-08-04T22:41:01.787Z,100412.84
2022-08-04T22:43:32.311Z,100425.03
2022-08-04T22:46:00.160Z,100417.06
2022-08-04T22:48:29.203Z,100410.53
2022-08-04T22:51:00.261Z,100408.50
2022-08-04T22:53:27.979Z,100415.09
2022-08-04T22:56:06.828Z,100412.06
2022-08-04T22:58:40.171Z,100416.81
2022-08-04T23:01:09.121Z,100418.91
2022-08-04T23:03:38.629Z,100419.13
2022-08-04T23:06:11.746Z,100413.00
2022-08-04T23:08:43.054Z,100416.47
2022-08-04T23:11:14.740Z,100418.03
2022-08-04T23:13:42.042Z,100425.22
2022-08-04T23:16:10.409Z,100429.97
2022-08-04T23:18:42.248Z,100428.75
2022-08-04T23:21:12.184Z,100427.13
2022-08-04T23:23:45.664Z,100420.38
2022-08-04T23:26:28.280Z,100420.38
2022-08-04T23:28:56.462Z,100422.88
2022-08-04T23:31:40.558Z,100425.75
2022-08-04T23:34:09.338Z,100428.88
2022-08-04T23:36:40.130Z,100423.16
2022-08-04T23:39:07.442Z,100415.13
2022-08-04T23:41:54.186Z,100426.63
2022-08-04T23:44:25.810Z,100418.03
2022-08-04T23:47:04.505Z,100429.72
2022-08-04T23:49:44.017Z,100433.63
2022-08-04T23:52:28.203Z,100438.34
2022-08-04T23:55:00.970Z,100434.03
2022-08-04T23:57:30.922Z,100438.75
